createdAt,value
2022-08-25T00:00:20.518Z,4.77
2022-08-25T00:02:55.152Z,5.20
2022-08-25T00:05:27.815Z,4.67
2022-08-25T00:07:57.210Z,4.70
2022-08-25T00:10:25.077Z,5.00
2022-08-25T00:12:54.255Z,4.80
2022-08-25T00:15:22.810Z,4.70
2022-08-25T00:17:50.795Z,4.80
2022-08-25T00:20:18.791Z,4.43
2022-08-25T00:22:46.542Z,4.63
2022-08-25T00:25:14.345Z,4.53
2022-08-25T00:27:43.665Z,4.57
2022-08-25T00:30:16.731Z,5.10
2022-08-25T00:32:55.096Z,4.50
2022-08-25T00:35:26.393Z,5.30
2022-08-25T00:37:54.172Z,5.07
2022-08-25T00:40:23.485Z,4.80
2022-08-25T00:42:51.281Z,5.00
2022-08-25T00:45:20.404Z,4.80
2022-08-25T00:47:48.449Z,4.93
2022-08-25T00:50:17.288Z,4.97
2022-08-25T00:52:49.189Z,5.07
2022-08-25T00:55:21.314Z,4.67
2022-08-25T00:57:57.759Z,4.97
2022-08-25T01:00:31.060Z,4.70
2022-08-25T01:02:59.343Z,4.83
2022-08-25T01:05:28.694Z,5.00
2022-08-25T01:08:00.274Z,4.80
2022-08-25T01:10:28.780Z,5.13
2022-08-25T01:13:03.919Z,4.60
2022-08-25T01:15:34.393Z,5.03
2022-08-25T01:18:05.970Z,4.60
2022-08-25T01:20:34.652Z,4.57
2022-08-25T01:23:03.794Z,4.93
2022-08-25T01:25:40.653Z,4.73
2022-08-25T01:28:08.437Z,5.13
2022-08-25T01:30:37.582Z,4.20
2022-08-25T01:33:05.979Z,4.23
2022-08-25T01:35:34.256Z,4.50
2022-08-25T01:38:05.931Z,5.00
2022-08-25T01:40:35.651Z,5.10
2022-08-25T01:43:13.021Z,5.83
2022-08-25T01:45:44.150Z,5.70
2022-08-25T01:48:13.410Z,5.50
2022-08-25T01:50:42.040Z,5.93
2022-08-25T01:53:15.457Z,6.03
2022-08-25T01:55:52.935Z,6.30
2022-08-25T01:58:23.727Z,5.90
2022-08-25T02:00:55.774Z,5.50
2022-08-25T02:03:24.850Z,6.07
2022-08-25T02:05:53.340Z,6.10
2022-08-25T02:08:23.335Z,6.70
2022-08-25T02:10:51.421Z,6.53
2022-08-25T02:13:20.764Z,6.87
2022-08-25T02:15:56.410Z,6.50
2022-08-25T02:18:25.132Z,6.57
2022-08-25T02:20:54.238Z,5.63
2022-08-25T02:23:23.438Z,5.60
2022-08-25T02:25:51.402Z,6.00
2022-08-25T02:28:19.210Z,5.90
2022-08-25T02:30:48.078Z,5.87
2022-08-25T02:33:15.990Z,5.80
2022-08-25T02:35:43.687Z,5.53
2022-08-25T02:38:11.515Z,5.77
2022-08-25T02:40:40.745Z,5.83
2022-08-25T02:43:08.559Z,5.77
2022-08-25T02:45:36.750Z,6.33
2022-08-25T02:48:05.022Z,5.40
2022-08-25T02:50:33.302Z,5.90
2022-08-25T02:53:01.070Z,6.33
2022-08-25T02:55:28.890Z,6.77
2022-08-25T02:57:57.981Z,6.03
2022-08-25T03:00:26.360Z,6.40
2022-08-25T03:02:54.278Z,6.67
2022-08-25T03:05:22.362Z,6.47
2022-08-25T03:07:50.091Z,6.27
2022-08-25T03:10:20.798Z,6.40
2022-08-25T03:12:48.664Z,7.43
2022-08-25T03:15:18.424Z,6.60
2022-08-25T03:17:46.791Z,6.03
2022-08-25T03:20:15.349Z,6.40
2022-08-25T03:22:43.320Z,5.53
2022-08-25T03:25:29.147Z,4.83
2022-08-25T03:27:56.935Z,5.60
2022-08-25T03:30:26.696Z,6.03
2022-08-25T03:32:54.823Z,6.10
2022-08-25T03:35:22.750Z,6.33
2022-08-25T03:37:51.112Z,6.33
2022-08-25T03:40:18.947Z,6.53
2022-08-25T03:42:47.751Z,6.70
2022-08-25T03:45:17.747Z,5.97
2022-08-25T03:47:49.323Z,5.93
2022-08-25T03:50:18.937Z,6.40
2022-08-25T03:52:51.083Z,6.77
2022-08-25T03:55:19.123Z,6.87
2022-08-25T03:57:46.834Z,7.97
2022-08-25T04:00:15.050Z,8.27
2022-08-25T04:02:43.783Z,8.67
2022-08-25T04:05:13.556Z,8.03
2022-08-25T04:07:43.755Z,8.60
2022-08-25T04:10:12.429Z,7.67
2022-08-25T04:12:40.350Z,7.77
2022-08-25T04:15:10.586Z,8.30
2022-08-25T04:17:40.742Z,8.67
2022-08-25T04:20:11.413Z,9.60
2022-08-25T04:22:45.112Z,9.57
2022-08-25T04:25:13.439Z,10.30
2022-08-25T04:27:41.519Z,10.13
2022-08-25T04:30:10.784Z,10.20
2022-08-25T04:32:38.616Z,10.30
2022-08-25T04:35:07.501Z,9.50
2022-08-25T04:37:35.426Z,10.40
2022-08-25T04:40:05.719Z,10.60
2022-08-25T04:42:33.918Z,9.57
2022-08-25T04:45:03.900Z,10.60
2022-08-25T04:47:31.708Z,10.30
2022-08-25T04:49:59.451Z,11.03
2022-08-25T04:52:27.192Z,10.93
2022-08-25T04:54:55.435Z,11.10
2022-08-25T04:57:24.544Z,10.57
2022-08-25T04:59:52.454Z,10.70
2022-08-25T05:02:20.556Z,10.80
2022-08-25T05:04:48.361Z,11.20
2022-08-25T05:07:16.149Z,11.10
2022-08-25T05:09:43.975Z,10.83
2022-08-25T05:12:11.861Z,11.57
2022-08-25T05:14:41.760Z,11.63
2022-08-25T05:17:09.486Z,12.67
2022-08-25T05:19:37.253Z,11.80
2022-08-25T05:22:05.109Z,11.43
2022-08-25T05:24:32.885Z,11.17
2022-08-25T05:27:00.698Z,10.87
2022-08-25T05:29:28.484Z,11.07
2022-08-25T05:31:57.734Z,10.57
2022-08-25T05:34:25.779Z,11.17
2022-08-25T05:36:54.492Z,10.57
2022-08-25T05:39:22.280Z,11.10
2022-08-25T05:41:50.094Z,10.30
2022-08-25T05:44:21.168Z,11.13
2022-08-25T05:46:49.918Z,9.93
2022-08-25T05:49:19.557Z,10.60
2022-08-25T05:51:47.322Z,10.40
2022-08-25T05:54:15.117Z,11.50
2022-08-25T05:56:42.933Z,11.30
2022-08-25T05:59:10.729Z,10.83
2022-08-25T06:01:56.102Z,10.87
2022-08-25T06:04:25.523Z,10.73
2022-08-25T06:06:54.764Z,10.53
2022-08-25T06:09:23.059Z,12.20
2022-08-25T06:11:54.639Z,11.50
2022-08-25T06:14:23.863Z,11.10
2022-08-25T06:16:52.123Z,11.47
2022-08-25T06:19:21.140Z,11.70
2022-08-25T06:21:50.744Z,11.53
2022-08-25T06:24:18.450Z,11.00
2022-08-25T06:26:46.330Z,11.10
2022-08-25T06:29:14.930Z,10.37
2022-08-25T06:31:43.418Z,11.50
2022-08-25T06:34:12.306Z,10.57
2022-08-25T06:36:40.293Z,10.37
2022-08-25T06:39:10.599Z,10.17
2022-08-25T06:41:39.109Z,10.33
2022-08-25T06:44:07.199Z,9.73
2022-08-25T06:46:37.112Z,10.13
2022-08-25T06:49:06.043Z,10.33
2022-08-25T06:51:36.001Z,10.20
2022-08-25T06:54:05.113Z,9.90
2022-08-25T06:56:35.144Z,10.07
2022-08-25T06:59:03.710Z,10.00
2022-08-25T07:01:32.119Z,9.37
2022-08-25T07:04:04.869Z,9.97
2022-08-25T07:06:36.024Z,9.87
2022-08-25T07:09:06.205Z,9.60
2022-08-25T07:11:35.900Z,9.20
2022-08-25T07:14:06.807Z,8.83
2022-08-25T07:16:35.054Z,9.40
2022-08-25T07:19:03.203Z,8.93
2022-08-25T07:21:35.555Z,8.80
2022-08-25T07:24:06.891Z,8.83
2022-08-25T07:26:38.609Z,8.33
2022-08-25T07:29:10.424Z,8.73
2022-08-25T07:31:38.356Z,8.63
2022-08-25T07:34:24.277Z,8.23
2022-08-25T07:36:53.542Z,8.17
2022-08-25T07:39:21.991Z,7.70
2022-08-25T07:41:52.436Z,7.73
2022-08-25T07:44:22.582Z,8.23
2022-08-25T07:46:50.927Z,8.37
2022-08-25T07:49:23.204Z,7.67
2022-08-25T07:52:04.390Z,6.63
2022-08-25T07:54:34.528Z,7.13
2022-08-25T07:57:04.384Z,7.33
2022-08-25T07:59:39.231Z,7.90
2022-08-25T08:02:09.265Z,7.97
2022-08-25T08:04:46.238Z,7.50
2022-08-25T08:07:14.063Z,7.10
2022-08-25T08:09:41.777Z,7.43
2022-08-25T08:12:11.896Z,7.40
2022-08-25T08:14:44.993Z,7.87
2022-08-25T08:17:14.335Z,7.07
2022-08-25T08:19:45.291Z,7.13
2022-08-25T08:22:15.587Z,6.70
2022-08-25T08:24:54.787Z,6.20
2022-08-25T08:27:25.684Z,6.43
2022-08-25T08:29:53.659Z,6.90
2022-08-25T08:32:25.220Z,6.88
2022-08-25T08:35:03.372Z,6.97
2022-08-25T08:37:31.368Z,6.40
2022-08-25T08:40:01.485Z,6.53
2022-08-25T08:42:57.679Z,6.03
2022-08-25T08:45:40.560Z,5.55
2022-08-25T08:48:44.248Z,6.15
2022-08-25T08:51:22.924Z,6.13
2022-08-25T08:53:57.391Z,6.22
2022-08-25T08:56:30.850Z,6.55
2022-08-25T08:59:06.363Z,5.40
2022-08-25T09:01:36.669Z,5.72
2022-08-25T09:04:10.321Z,5.18
2022-08-25T09:06:42.544Z,5.20
2022-08-25T09:09:15.300Z,5.10
2022-08-25T09:11:59.207Z,4.82
2022-08-25T09:14:40.786Z,5.50
2022-08-25T09:17:21.551Z,4.78
2022-08-25T09:20:18.368Z,4.75
2022-08-25T09:23:00.147Z,4.90
2022-08-25T09:25:54.409Z,5.28
2022-08-25T09:28:29.699Z,5.15
2022-08-25T09:31:02.526Z,5.30
2022-08-25T09:33:35.413Z,4.65
2022-08-25T09:36:06.192Z,4.50
2022-08-25T09:38:34.760Z,4.55
2022-08-25T09:41:03.204Z,4.63
2022-08-25T09:43:33.689Z,4.25
2022-08-25T09:46:10.365Z,4.15
2022-08-25T09:48:46.590Z,4.05
2022-08-25T09:51:24.242Z,4.03
2022-08-25T09:53:56.619Z,4.15
2022-08-25T09:56:27.461Z,3.80
2022-08-25T09:59:03.040Z,3.90
2022-08-25T10:01:35.014Z,4.07
2022-08-25T10:04:05.670Z,4.15
2022-08-25T10:06:43.699Z,3.58
2022-08-25T10:09:29.354Z,3.78
2022-08-25T10:12:01.049Z,4.10
2022-08-25T10:14:36.227Z,3.92
2022-08-25T10:17:24.736Z,3.97
2022-08-25T10:20:13.104Z,3.75
2022-08-25T10:22:42.843Z,3.50
2022-08-25T10:25:13.308Z,4.00
2022-08-25T10:28:11.343Z,3.83
2022-08-25T10:30:51.542Z,3.88
2022-08-25T10:33:31.674Z,3.70
2022-08-25T10:36:06.506Z,3.50
2022-08-25T10:38:42.924Z,3.72
2022-08-25T10:41:27.371Z,3.25
2022-08-25T10:44:03.636Z,3.35
2022-08-25T10:46:42.042Z,3.47
2022-08-25T10:49:19.370Z,3.28
2022-08-25T10:51:56.771Z,2.78
2022-08-25T10:54:38.398Z,3.25
2022-08-25T10:57:16.811Z,3.30
2022-08-25T10:59:58.316Z,3.30
2022-08-25T11:02:50.410Z,3.30
2022-08-25T11:05:27.227Z,3.58
2022-08-25T11:08:02.295Z,3.00
2022-08-25T11:10:40.604Z,3.30
2022-08-25T11:13:15.550Z,3.33
2022-08-25T11:16:13.664Z,3.15
2022-08-25T11:18:47.610Z,3.40
2022-08-25T11:21:24.368Z,3.00
2022-08-25T11:24:00.149Z,3.40
2022-08-25T11:26:37.037Z,3.45
2022-08-25T11:29:11.593Z,4.03
2022-08-25T11:31:44.119Z,3.70
2022-08-25T11:34:15.885Z,3.60
2022-08-25T11:36:53.523Z,3.22
2022-08-25T11:39:40.349Z,3.53
2022-08-25T11:42:20.461Z,3.60
2022-08-25T11:45:02.390Z,3.63
2022-08-25T11:47:58.450Z,3.63
2022-08-25T11:50:31.215Z,3.90
2022-08-25T11:53:23.716Z,3.92
2022-08-25T11:56:02.291Z,3.75
2022-08-25T11:58:35.536Z,3.83
2022-08-25T12:01:06.936Z,3.85
2022-08-25T12:03:54.073Z,3.47
2022-08-25T12:06:29.411Z,4.00
2022-08-25T12:09:22.909Z,4.20
2022-08-25T12:11:58.841Z,4.00
2022-08-25T12:14:47.939Z,3.90
2022-08-25T12:17:25.654Z,4.20
2022-08-25T12:19:59.756Z,4.07
2022-08-25T12:22:58.411Z,4.20
2022-08-25T12:25:45.507Z,4.60
2022-08-25T12:28:41.906Z,4.00
2022-08-25T12:31:23.925Z,4.57
2022-08-25T12:34:09.259Z,4.22
2022-08-25T12:36:40.715Z,4.15
2022-08-25T12:39:17.822Z,4.00
2022-08-25T12:41:57.837Z,4.15
2022-08-25T12:44:40.096Z,4.18
2022-08-25T12:47:14.394Z,4.10
2022-08-25T12:49:42.624Z,4.00
2022-08-25T12:52:16.930Z,4.43
2022-08-25T12:54:49.675Z,4.28
2022-08-25T12:57:41.190Z,4.70
2022-08-25T13:00:18.482Z,4.50
2022-08-25T13:03:26.328Z,4.15
2022-08-25T13:06:09.317Z,4.88
2022-08-25T13:09:08.259Z,5.00
2022-08-25T13:11:43.187Z,5.07
2022-08-25T13:14:20.217Z,5.00
2022-08-25T13:16:55.591Z,4.90
2022-08-25T13:19:24.257Z,4.70
2022-08-25T13:21:54.613Z,4.60
2022-08-25T13:24:26.655Z,4.30
2022-08-25T13:26:57.098Z,3.80
2022-08-25T13:29:29.344Z,4.10
2022-08-25T13:32:09.302Z,3.95
2022-08-25T13:34:42.921Z,3.83
2022-08-25T13:37:33.184Z,4.10
2022-08-25T13:40:17.776Z,4.10
2022-08-25T13:42:54.435Z,4.15
2022-08-25T13:45:27.626Z,4.13
2022-08-25T13:47:56.847Z,4.20
2022-08-25T13:50:33.250Z,4.57
2022-08-25T13:53:04.779Z,4.90
2022-08-25T13:55:38.125Z,4.32
2022-08-25T13:58:24.326Z,4.72
2022-08-25T14:01:23.217Z,4.22
2022-08-25T14:04:01.135Z,4.32
2022-08-25T14:06:29.537Z,4.03
2022-08-25T14:09:16.024Z,4.20
2022-08-25T14:11:48.042Z,3.78
2022-08-25T14:14:32.327Z,4.30
2022-08-25T14:17:22.286Z,3.90
2022-08-25T14:19:56.252Z,4.07
2022-08-25T14:22:24.204Z,4.20
2022-08-25T14:24:54.275Z,4.10
2022-08-25T14:27:22.187Z,3.97
2022-08-25T14:29:52.847Z,4.30
2022-08-25T14:32:22.730Z,4.85
2022-08-25T14:34:50.486Z,4.53
2022-08-25T14:37:20.612Z,4.53
2022-08-25T14:39:54.582Z,4.20
2022-08-25T14:42:22.659Z,4.30
2022-08-25T14:44:53.209Z,3.85
2022-08-25T14:47:22.403Z,4.32
2022-08-25T14:49:51.968Z,4.30
2022-08-25T14:52:22.710Z,4.00
2022-08-25T14:54:50.687Z,3.88
2022-08-25T14:57:42.587Z,4.38
2022-08-25T15:00:12.122Z,4.47
2022-08-25T15:02:44.744Z,4.20
2022-08-25T15:05:17.169Z,4.40
2022-08-25T15:08:05.630Z,4.20
2022-08-25T15:10:35.203Z,4.13
2022-08-25T15:13:02.991Z,5.53
2022-08-25T15:15:32.883Z,4.50
2022-08-25T15:18:02.338Z,4.43
2022-08-25T15:20:30.338Z,4.40
2022-08-25T15:22:58.575Z,4.30
2022-08-25T15:25:26.615Z,4.57
2022-08-25T15:27:55.203Z,4.55
2022-08-25T15:30:22.939Z,4.25
2022-08-25T15:32:59.216Z,4.30
2022-08-25T15:35:29.078Z,4.30
2022-08-25T15:37:57.480Z,4.30
2022-08-25T15:40:25.601Z,4.30
2022-08-25T15:42:53.408Z,4.38
2022-08-25T15:45:23.639Z,4.63
2022-08-25T15:47:54.084Z,5.00
2022-08-25T15:50:26.039Z,5.07
2022-08-25T15:52:55.432Z,5.70
2022-08-25T15:55:23.187Z,4.50
2022-08-25T15:57:51.408Z,4.80
2022-08-25T16:00:21.521Z,4.72
2022-08-25T16:02:49.629Z,4.15
2022-08-25T16:05:17.457Z,4.65
2022-08-25T16:07:51.583Z,4.68
2022-08-25T16:10:21.299Z,4.47
2022-08-25T16:12:49.743Z,4.35
2022-08-25T16:15:17.515Z,4.72
2022-08-25T16:17:50.559Z,4.65
2022-08-25T16:20:20.752Z,5.15
2022-08-25T16:22:51.646Z,4.82
2022-08-25T16:25:21.985Z,4.70
2022-08-25T16:27:49.790Z,4.50
2022-08-25T16:30:17.895Z,4.53
2022-08-25T16:32:46.524Z,5.05
2022-08-25T16:35:14.942Z,5.03
2022-08-25T16:37:42.841Z,5.40
2022-08-25T16:40:13.595Z,5.45
2022-08-25T16:42:45.043Z,4.95
2022-08-25T16:45:12.885Z,5.03
2022-08-25T16:47:42.577Z,4.60
2022-08-25T16:50:11.579Z,5.43
2022-08-25T16:52:58.248Z,4.68
2022-08-25T16:55:39.183Z,5.03
2022-08-25T16:58:12.633Z,4.78
2022-08-25T17:00:41.669Z,5.18
2022-08-25T17:03:12.890Z,4.85
2022-08-25T17:05:43.296Z,5.60
2022-08-25T17:08:29.454Z,5.30
2022-08-25T17:11:06.429Z,5.00
2022-08-25T17:13:36.826Z,4.95
2022-08-25T17:16:05.277Z,5.00
2022-08-25T17:18:33.729Z,4.72
2022-08-25T17:21:03.903Z,5.10
2022-08-25T17:23:33.074Z,5.03
2022-08-25T17:26:02.384Z,5.80
2022-08-25T17:28:30.490Z,5.15
2022-08-25T17:30:59.844Z,5.88
2022-08-25T17:33:28.162Z,5.63
2022-08-25T17:35:57.926Z,5.47
2022-08-25T17:38:28.439Z,6.35
2022-08-25T17:40:58.259Z,5.97
2022-08-25T17:43:27.684Z,6.13
2022-08-25T17:45:57.481Z,6.10
2022-08-25T17:48:26.949Z,5.72
2022-08-25T17:50:55.587Z,6.53
2022-08-25T17:53:23.387Z,6.43
2022-08-25T17:56:00.253Z,6.63
2022-08-25T17:58:29.724Z,6.55
2022-08-25T18:00:58.290Z,6.03
2022-08-25T18:03:28.319Z,6.30
2022-08-25T18:05:56.521Z,6.65
2022-08-25T18:08:29.237Z,6.40
2022-08-25T18:11:03.287Z,6.15
2022-08-25T18:13:31.496Z,6.28
2022-08-25T18:15:59.360Z,6.07
2022-08-25T18:18:28.763Z,6.70
2022-08-25T18:20:56.754Z,6.32
2022-08-25T18:23:24.911Z,6.28
2022-08-25T18:25:53.179Z,6.60
2022-08-25T18:28:29.035Z,6.53
2022-08-25T18:30:57.157Z,5.95
2022-08-25T18:33:25.627Z,6.60
2022-08-25T18:35:59.781Z,6.80
2022-08-25T18:38:44.819Z,6.80
2022-08-25T18:41:13.359Z,7.07
2022-08-25T18:43:41.185Z,7.15
2022-08-25T18:46:09.094Z,7.75
2022-08-25T18:48:38.188Z,7.07
2022-08-25T18:51:07.462Z,6.97
2022-08-25T18:53:50.099Z,7.57
2022-08-25T18:56:19.170Z,7.45
2022-08-25T18:58:47.573Z,7.38
2022-08-25T19:01:15.663Z,8.10
2022-08-25T19:03:44.036Z,7.22
2022-08-25T19:06:13.415Z,7.15
2022-08-25T19:08:43.176Z,7.35
2022-08-25T19:11:11.151Z,7.03
2022-08-25T19:13:40.817Z,7.85
2022-08-25T19:16:13.918Z,7.35
2022-08-25T19:18:47.413Z,7.47
2022-08-25T19:21:20.508Z,8.45
2022-08-25T19:23:50.942Z,7.43
2022-08-25T19:26:20.858Z,8.40
2022-08-25T19:28:49.686Z,8.05
2022-08-25T19:31:18.262Z,8.10
2022-08-25T19:33:46.916Z,8.40
2022-08-25T19:36:17.849Z,8.13
2022-08-25T19:38:49.303Z,7.55
2022-08-25T19:41:19.850Z,7.90
2022-08-25T19:43:56.262Z,8.15
2022-08-25T19:46:25.780Z,8.55
2022-08-25T19:49:07.162Z,8.52
2022-08-25T19:51:38.053Z,8.45
2022-08-25T19:54:09.250Z,7.97
2022-08-25T19:56:53.695Z,7.93
2022-08-25T19:59:22.738Z,8.20
2022-08-25T20:01:53.390Z,8.00
2022-08-25T20:04:24.156Z,8.18
2022-08-25T20:06:55.324Z,7.97
2022-08-25T20:09:38.859Z,8.52
2022-08-25T20:12:10.253Z,8.53
2022-08-25T20:14:38.661Z,8.90
2022-08-25T20:17:14.457Z,8.17
2022-08-25T20:19:52.415Z,8.27
2022-08-25T20:22:25.840Z,9.10
2022-08-25T20:24:55.910Z,9.37
2022-08-25T20:27:29.184Z,8.93
2022-08-25T20:29:57.041Z,9.32
2022-08-25T20:32:25.056Z,9.00
2022-08-25T20:34:55.822Z,9.20
2022-08-25T20:37:25.750Z,9.10
2022-08-25T20:39:54.871Z,8.87
2022-08-25T20:42:22.908Z,9.40
2022-08-25T20:44:50.691Z,8.47
2022-08-25T20:47:20.601Z,9.03
2022-08-25T20:49:50.324Z,8.80
2022-08-25T20:52:19.624Z,9.77
2022-08-25T20:54:49.577Z,9.53
2022-08-25T20:57:19.213Z,9.37
2022-08-25T20:59:54.581Z,8.90
2022-08-25T21:02:22.901Z,9.07
2022-08-25T21:04:52.460Z,9.10
2022-08-25T21:07:21.225Z,9.30
2022-08-25T21:09:53.451Z,9.07
2022-08-25T21:12:22.124Z,9.37
2022-08-25T21:14:50.672Z,9.57
2022-08-25T21:17:19.258Z,9.57
2022-08-25T21:22:16.860Z,10.30
2022-08-25T21:24:45.372Z,9.40
2022-08-25T21:27:14.709Z,9.13
2022-08-25T21:29:44.531Z,9.53
2022-08-25T21:32:22.176Z,9.70
2022-08-25T21:34:52.892Z,9.90
2022-08-25T21:37:21.472Z,10.03
2022-08-25T21:39:49.410Z,9.60
2022-08-25T21:42:18.891Z,9.67
2022-08-25T21:44:46.713Z,10.33
2022-08-25T21:47:14.572Z,10.40
2022-08-25T21:49:42.589Z,9.80
2022-08-25T21:52:10.843Z,10.00
2022-08-25T21:54:39.018Z,10.13
2022-08-25T21:57:07.769Z,10.80
2022-08-25T21:59:40.242Z,9.77
2022-08-25T22:02:11.165Z,9.83
2022-08-25T22:04:40.102Z,10.03
2022-08-25T22:07:08.624Z,10.00
2022-08-25T22:09:36.983Z,10.40
2022-08-25T22:12:05.819Z,9.90
2022-08-25T22:14:33.854Z,10.63
2022-08-25T22:17:03.888Z,10.07
2022-08-25T22:19:31.760Z,10.57
2022-08-25T22:22:01.538Z,10.13
2022-08-25T22:24:29.325Z,10.53
2022-08-25T22:26:57.264Z,10.67
2022-08-25T22:29:26.691Z,10.10
2022-08-25T22:31:59.332Z,10.50
2022-08-25T22:34:33.133Z,10.47
2022-08-25T22:37:01.368Z,10.30
2022-08-25T22:39:29.772Z,10.57
2022-08-25T22:41:57.657Z,10.03
2022-08-25T22:44:27.148Z,10.27
2022-08-25T22:46:55.000Z,10.60
2022-08-25T22:49:22.896Z,11.03
2022-08-25T22:51:55.157Z,10.87
2022-08-25T22:54:25.451Z,11.37
2022-08-25T22:56:53.985Z,10.67
2022-08-25T22:59:22.172Z,10.70
2022-08-25T23:01:52.352Z,10.53
2022-08-25T23:04:20.640Z,11.17
2022-08-25T23:06:48.822Z,10.60
2022-08-25T23:09:18.711Z,10.30
2022-08-25T23:11:46.548Z,11.10
2022-08-25T23:14:14.440Z,10.73
2022-08-25T23:16:44.148Z,10.80
2022-08-25T23:19:13.996Z,11.23
2022-08-25T23:22:02.169Z,11.40
2022-08-25T23:24:32.191Z,10.73
2022-08-25T23:27:01.924Z,10.47
2022-08-25T23:29:30.806Z,10.60
2022-08-25T23:31:59.654Z,10.80
2022-08-25T23:34:28.701Z,10.30
2022-08-25T23:36:56.924Z,11.03
2022-08-25T23:39:25.422Z,10.93
2022-08-25T23:41:54.792Z,11.03
2022-08-25T23:44:24.538Z,11.30
2022-08-25T23:46:53.990Z,10.20
2022-08-25T23:49:23.968Z,10.50
2022-08-25T23:51:53.339Z,10.90
2022-08-25T23:54:21.732Z,11.10
2022-08-25T23:57:00.378Z,10.87
2022-08-25T23:59:29.656Z,10.33
